Time;durP1;ratioP1;P1;durP2;ratioP2;P2;SDS_P1;SDS_P2;PMS_P1;PMS_P2;Temp;Humidity;BMP_temperature;BMP_pressure;BME280_temperature;BME280_humidity;BME280_pressure;Samples;Min_cycle;Max_cycle;Signal;HPM_P1;HPM_P2
2022/01/01 00:02:02;;;;;;;11.67;7.90;;;16.10;99.90;;;;;;5038221;28;20706;-25
2022/01/01 00:04:30;;;;;;;13.63;7.50;;;16.00;99.90;;;;;;5049459;28;20207;-24
2022/01/01 00:06:57;;;;;;;12.80;7.93;;;16.00;99.90;;;;;;5049893;28;20952;-23
2022/01/01 00:09:26;;;;;;;15.03;7.97;;;16.00;99.90;;;;;;5050048;28;20291;-24
2022/01/01 00:11:54;;;;;;;14.57;7.77;;;16.00;99.90;;;;;;5080185;28;20240;-23
2022/01/01 00:14:26;;;;;;;12.63;7.53;;;16.00;99.90;;;;;;5048042;28;20265;-24
2022/01/01 00:16:53;;;;;;;13.60;7.67;;;16.00;99.90;;;;;;5049889;28;20686;-24
2022/01/01 00:19:21;;;;;;;14.37;8.10;;;16.00;99.90;;;;;;5039089;28;20211;-24
2022/01/01 00:21:51;;;;;;;13.97;8.00;;;16.00;99.90;;;;;;5031556;28;21661;-23
2022/01/01 00:24:20;;;;;;;16.17;8.33;;;16.00;99.90;;;;;;5048770;28;20220;-23
2022/01/01 00:26:48;;;;;;;12.57;8.07;;;16.00;99.90;;;;;;5049027;28;20208;-23
2022/01/01 00:29:15;;;;;;;13.10;8.43;;;16.00;99.90;;;;;;5049346;28;20291;-23
2022/01/01 00:31:43;;;;;;;14.60;8.37;;;16.00;99.90;;;;;;5049553;28;20220;-23
2022/01/01 00:34:13;;;;;;;15.00;8.47;;;16.00;99.90;;;;;;5049227;28;20240;-23
2022/01/01 00:36:43;;;;;;;15.17;9.10;;;16.00;99.90;;;;;;5048222;28;20218;-24
2022/01/01 00:39:10;;;;;;;13.07;8.67;;;16.00;99.90;;;;;;5047346;28;20202;-23
2022/01/01 00:41:37;;;;;;;17.03;9.73;;;16.00;99.90;;;;;;5049124;28;20203;-23
2022/01/01 00:44:05;;;;;;;14.00;8.73;;;16.00;99.90;;;;;;5047649;28;20283;-23
2022/01/01 00:46:34;;;;;;;14.07;9.10;;;16.00;99.90;;;;;;5048845;28;20208;-24
2022/01/01 00:49:04;;;;;;;14.00;8.83;;;16.00;99.90;;;;;;5049144;28;20240;-24
2022/01/01 00:51:31;;;;;;;12.43;8.37;;;16.00;99.90;;;;;;5049750;28;20286;-24
2022/01/01 00:53:58;;;;;;;15.53;8.77;;;16.00;99.90;;;;;;5047804;28;20211;-24
2022/01/01 00:56:26;;;;;;;12.70;7.93;;;16.00;99.90;;;;;;5049269;28;20207;-23
2022/01/01 00:58:53;;;;;;;13.77;8.33;;;16.00;99.90;;;;;;5048650;28;20213;-23
2022/01/01 01:01:23;;;;;;;14.33;8.20;;;16.00;99.90;;;;;;5049288;28;20996;-23
2022/01/01 01:03:50;;;;;;;13.00;7.83;;;16.00;99.90;;;;;;5048432;28;20214;-24
2022/01/01 01:06:18;;;;;;;13.27;8.00;;;15.90;99.90;;;;;;5047833;28;20204;-23
2022/01/01 01:08:45;;;;;;;12.63;7.87;;;15.90;99.90;;;;;;5048131;28;20202;-24
2022/01/01 01:11:14;;;;;;;14.67;7.43;;;15.90;99.90;;;;;;5032495;28;20207;-23
2022/01/01 01:13:44;;;;;;;12.17;6.60;;;15.90;99.90;;;;;;5048249;28;20295;-23
2022/01/01 01:16:12;;;;;;;10.77;7.07;;;15.90;99.90;;;;;;5048927;28;20580;-23
2022/01/01 01:18:39;;;;;;;11.90;6.80;;;15.90;99.90;;;;;;5046866;28;20586;-23
2022/01/01 01:21:06;;;;;;;10.67;7.20;;;15.90;99.90;;;;;;5048825;28;20224;-24
2022/01/01 01:23:36;;;;;;;12.30;6.77;;;15.90;99.90;;;;;;5048100;28;20571;-23
2022/01/01 01:26:08;;;;;;;12.67;6.80;;;15.90;99.90;;;;;;5046753;28;20638;-23
2022/01/01 01:28:45;;;;;;;12.50;6.60;;;15.90;99.90;;;;;;5043422;28;20199;-23
2022/01/01 01:31:12;;;;;;;14.17;7.70;;;15.80;99.90;;;;;;5048790;28;20203;-24
2022/01/01 01:33:40;;;;;;;13.87;7.90;;;15.80;99.90;;;;;;5047200;28;20314;-23
2022/01/01 01:36:08;;;;;;;13.17;7.60;;;15.80;99.90;;;;;;5048700;28;20204;-23
2022/01/01 01:38:37;;;;;;;12.40;7.37;;;15.80;99.90;;;;;;5047591;28;20196;-23
2022/01/01 01:41:08;;;;;;;15.97;7.77;;;15.70;99.90;;;;;;5047661;28;20199;-24
2022/01/01 01:43:38;;;;;;;14.67;8.23;;;15.70;99.90;;;;;;5041468;28;20212;-23
2022/01/01 01:46:06;;;;;;;14.00;8.83;;;15.70;99.90;;;;;;5043963;28;20224;-24
2022/01/01 01:48:37;;;;;;;13.80;8.53;;;15.70;99.90;;;;;;5047879;28;20322;-24
2022/01/01 01:51:04;;;;;;;16.97;9.70;;;15.70;99.90;;;;;;5048163;28;20200;-23
2022/01/01 01:53:34;;;;;;;16.87;10.20;;;15.70;99.90;;;;;;5047569;28;20235;-23
2022/01/01 01:56:01;;;;;;;15.43;10.63;;;15.70;99.90;;;;;;5047441;28;20211;-24
2022/01/01 01:58:30;;;;;;;16.17;10.30;;;15.70;99.90;;;;;;5046075;28;20685;-24
2022/01/01 02:01:20;;;;;;;17.17;10.13;;;15.60;99.90;;;;;;5047279;28;20212;-24
2022/01/01 02:03:48;;;;;;;19.03;9.60;;;15.70;99.90;;;;;;5047465;28;20223;-24
2022/01/01 02:06:17;;;;;;;15.03;9.07;;;15.60;99.90;;;;;;5036907;28;20260;-23
2022/01/01 02:08:44;;;;;;;15.23;9.43;;;15.60;99.90;;;;;;5027113;28;20684;-23
2022/01/01 02:11:12;;;;;;;19.97;8.77;;;15.60;99.90;;;;;;5026950;28;20216;-24
2022/01/01 02:18:57;;;;;;;14.67;8.43;;;15.60;99.90;;;;;;5027918;28;20410;-23
2022/01/01 02:21:29;;;;;;;12.90;8.13;;;15.60;99.90;;;;;;5027716;28;20213;-24
2022/01/01 02:23:58;;;;;;;13.13;8.53;;;15.60;99.90;;;;;;5059149;28;20204;-24
2022/01/01 02:26:33;;;;;;;13.57;8.03;;;15.60;99.90;;;;;;5027154;28;20211;-24
2022/01/01 02:29:03;;;;;;;13.97;7.80;;;15.60;99.90;;;;;;5027331;28;20232;-23
2022/01/01 02:31:33;;;;;;;13.73;7.93;;;15.60;99.90;;;;;;5035648;28;20208;-23
2022/01/01 02:34:06;;;;;;;13.90;8.03;;;15.60;99.90;;;;;;5008544;28;20241;-23
2022/01/01 02:36:41;;;;;;;14.40;7.67;;;15.60;99.90;;;;;;5027640;28;20220;-23
2022/01/01 02:39:22;;;;;;;12.17;7.90;;;15.60;99.90;;;;;;5041806;28;20205;-24
2022/01/01 02:41:53;;;;;;;13.30;7.57;;;15.60;99.90;;;;;;5027356;28;20200;-23
2022/01/01 02:44:25;;;;;;;14.00;7.67;;;15.60;99.90;;;;;;5015373;28;20206;-24
2022/01/01 02:46:57;;;;;;;10.40;6.93;;;15.60;99.90;;;;;;5025289;28;20208;-23
2022/01/01 02:49:27;;;;;;;13.23;6.80;;;15.60;99.90;;;;;;5058763;28;20240;-23
2022/01/01 02:51:54;;;;;;;12.33;6.63;;;15.60;99.90;;;;;;5027501;28;20578;-23
2022/01/01 02:54:25;;;;;;;12.87;7.23;;;15.60;99.90;;;;;;5027019;28;20250;-24
2022/01/01 02:56:53;;;;;;;11.60;6.63;;;15.60;99.90;;;;;;5027107;28;20286;-23
2022/01/01 02:59:23;;;;;;;12.80;6.87;;;15.60;99.90;;;;;;5027370;28;20189;-23
2022/01/01 03:01:50;;;;;;;11.43;6.40;;;15.60;99.90;;;;;;5025449;28;20256;-23
2022/01/01 03:04:20;;;;;;;10.10;5.93;;;15.60;99.90;;;;;;5027484;28;20248;-23
2022/01/01 03:06:53;;;;;;;9.77;6.03;;;15.60;99.90;;;;;;5027669;28;20285;-23
2022/01/01 03:09:23;;;;;;;10.83;6.20;;;15.60;99.90;;;;;;5026908;28;20204;-24
2022/01/01 03:11:53;;;;;;;11.70;5.83;;;15.60;99.90;;;;;;5025720;28;20674;-23
2022/01/01 03:14:23;;;;;;;12.97;6.40;;;15.60;99.90;;;;;;5026603;28;20262;-23
2022/01/01 03:16:51;;;;;;;9.87;5.47;;;15.60;99.90;;;;;;5007777;28;20202;-23
2022/01/01 03:19:18;;;;;;;11.03;6.27;;;15.60;99.90;;;;;;5007478;28;20245;-24
2022/01/01 03:21:50;;;;;;;11.90;5.53;;;15.50;99.90;;;;;;5007587;28;20220;-23
2022/01/01 03:24:17;;;;;;;10.67;5.37;;;15.50;99.90;;;;;;5022971;28;20208;-23
2022/01/01 03:26:45;;;;;;;10.77;5.53;;;15.50;99.90;;;;;;5026759;28;20209;-24
2022/01/01 03:29:14;;;;;;;10.57;5.53;;;15.50;99.90;;;;;;5026787;28;20212;-24
2022/01/01 03:31:42;;;;;;;9.17;5.73;;;15.50;99.90;;;;;;5026606;28;20476;-24
2022/01/01 03:34:09;;;;;;;10.00;4.93;;;15.50;99.90;;;;;;5026709;28;20223;-23
2022/01/01 03:36:37;;;;;;;9.30;5.07;;;15.50;99.90;;;;;;5027437;28;20207;-24
2022/01/01 03:39:05;;;;;;;10.77;5.17;;;15.50;99.90;;;;;;5025232;28;20219;-23
2022/01/01 03:41:35;;;;;;;11.33;5.20;;;15.40;99.90;;;;;;5027195;28;20259;-23
2022/01/01 03:44:02;;;;;;;10.37;5.03;;;15.40;99.90;;;;;;5026230;28;20679;-24
2022/01/01 03:46:29;;;;;;;10.43;4.73;;;15.40;99.90;;;;;;5027030;28;20209;-24
2022/01/01 03:48:57;;;;;;;10.10;4.60;;;15.40;99.90;;;;;;5026798;28;20264;-24
2022/01/01 03:51:24;;;;;;;10.50;5.70;;;15.40;99.90;;;;;;5027171;28;20209;-23
2022/01/01 03:53:54;;;;;;;7.97;5.63;;;15.40;99.90;;;;;;5024708;28;20520;-24
2022/01/01 03:56:23;;;;;;;10.87;5.93;;;15.40;99.90;;;;;;5025324;28;20513;-24
2022/01/01 03:58:51;;;;;;;8.87;5.53;;;15.40;99.90;;;;;;5030195;28;20213;-23
2022/01/01 04:01:18;;;;;;;9.60;5.30;;;15.40;99.90;;;;;;5030456;28;20212;-23
2022/01/01 04:03:50;;;;;;;8.43;5.13;;;15.40;99.90;;;;;;5028659;28;20232;-23
2022/01/01 04:06:19;;;;;;;9.17;5.20;;;15.40;99.90;;;;;;5030691;28;20215;-23
2022/01/01 04:08:51;;;;;;;9.70;5.00;;;15.30;99.90;;;;;;5028638;28;20303;-24
2022/01/01 04:11:21;;;;;;;12.60;4.83;;;15.30;99.90;;;;;;5030394;28;20225;-23
2022/01/01 04:13:49;;;;;;;12.87;5.00;;;15.30;99.90;;;;;;5061231;28;20221;-23
2022/01/01 04:16:18;;;;;;;8.37;4.67;;;15.30;99.90;;;;;;5017341;28;20213;-23
2022/01/01 04:18:45;;;;;;;13.53;4.90;;;15.30;99.90;;;;;;5030263;28;20262;-23
2022/01/01 04:21:14;;;;;;;10.67;5.17;;;15.30;99.90;;;;;;5030217;28;20196;-23
2022/01/01 04:23:45;;;;;;;11.83;5.53;;;15.30;99.90;;;;;;5028419;28;20491;-23
2022/01/01 04:26:12;;;;;;;11.63;4.70;;;15.30;99.90;;;;;;5010024;28;20217;-24
2022/01/01 04:28:41;;;;;;;9.53;4.50;;;15.30;99.90;;;;;;5009869;28;20197;-23
2022/01/01 04:31:08;;;;;;;10.40;4.07;;;15.20;99.90;;;;;;5010386;28;20584;-24
2022/01/01 04:33:38;;;;;;;11.23;4.50;;;15.20;99.90;;;;;;5018140;28;20721;-24
2022/01/01 04:36:05;;;;;;;10.17;4.23;;;15.20;99.90;;;;;;5030009;28;20259;-23
2022/01/01 04:41:02;;;;;;;8.67;4.37;;;15.10;99.90;;;;;;5030040;28;20797;-24
2022/01/01 04:43:30;;;;;;;7.57;4.20;;;15.10;99.90;;;;;;5029428;28;20223;-23
2022/01/01 04:46:00;;;;;;;10.07;5.07;;;15.00;99.90;;;;;;5017553;28;20249;-23
2022/01/01 04:48:27;;;;;;;10.17;5.33;;;15.00;99.90;;;;;;5009849;28;20209;-23
2022/01/01 04:50:55;;;;;;;10.70;5.00;;;15.00;99.90;;;;;;5049592;28;20260;-23
2022/01/01 04:53:24;;;;;;;11.13;4.90;;;14.90;99.90;;;;;;5059812;28;20216;-23
2022/01/01 04:55:51;;;;;;;10.60;4.77;;;14.90;99.90;;;;;;5029774;28;20200;-23
2022/01/01 04:58:19;;;;;;;6.67;4.20;;;14.90;99.90;;;;;;5028914;28;20213;-24
2022/01/01 05:00:48;;;;;;;9.03;4.50;;;14.80;99.90;;;;;;5028920;28;20300;-23
2022/01/01 05:03:18;;;;;;;10.13;4.67;;;14.80;99.90;;;;;;5028997;28;20205;-24
2022/01/01 05:05:50;;;;;;;8.17;4.30;;;14.80;99.90;;;;;;5029479;28;20200;-23
2022/01/01 05:08:19;;;;;;;9.53;4.70;;;14.70;99.90;;;;;;5028643;28;20220;-23
2022/01/01 05:10:46;;;;;;;10.03;4.30;;;14.70;99.90;;;;;;5029596;28;20221;-24
2022/01/01 05:13:14;;;;;;;8.30;4.77;;;14.70;99.90;;;;;;5028304;28;20553;-23
2022/01/01 05:15:41;;;;;;;8.93;4.63;;;14.60;99.90;;;;;;5029522;28;20237;-23
2022/01/01 05:18:08;;;;;;;9.73;4.83;;;14.60;99.90;;;;;;5029102;28;20583;-24
2022/01/01 05:20:38;;;;;;;10.17;4.93;;;14.60;99.90;;;;;;5028968;28;20579;-23
2022/01/01 05:23:05;;;;;;;9.33;4.70;;;14.60;99.90;;;;;;5027823;28;20304;-23
2022/01/01 05:25:32;;;;;;;9.07;4.77;;;14.50;99.90;;;;;;5028745;28;20235;-23
2022/01/01 05:27:59;;;;;;;10.67;4.30;;;14.50;99.90;;;;;;5028232;28;20276;-24
2022/01/01 05:30:27;;;;;;;8.50;4.53;;;14.50;99.90;;;;;;5029066;28;20423;-23
2022/01/01 05:33:00;;;;;;;9.33;4.30;;;14.50;99.90;;;;;;5028745;28;20232;-23
2022/01/01 05:35:32;;;;;;;9.27;5.00;;;14.50;99.90;;;;;;5027704;28;20201;-23
2022/01/01 05:37:59;;;;;;;12.80;5.27;;;14.40;99.90;;;;;;5028795;28;20722;-24
2022/01/01 05:40:48;;;;;;;8.53;5.00;;;14.40;99.90;;;;;;5028870;28;20683;-23
2022/01/01 05:43:15;;;;;;;12.00;5.20;;;14.40;99.90;;;;;;5027483;28;20247;-23
2022/01/01 05:45:43;;;;;;;10.80;5.03;;;14.30;99.90;;;;;;5024686;28;20204;-23
2022/01/01 05:48:13;;;;;;;9.47;4.40;;;14.30;99.90;;;;;;5028499;28;20688;-23
2022/01/01 05:50:40;;;;;;;9.57;4.50;;;14.30;99.90;;;;;;5028571;28;20248;-23
2022/01/01 05:53:10;;;;;;;8.17;4.07;;;14.30;99.90;;;;;;5027814;28;20575;-23
2022/01/01 05:55:37;;;;;;;7.90;4.27;;;14.20;99.90;;;;;;5027944;28;20205;-23
2022/01/01 05:58:05;;;;;;;10.70;4.87;;;14.20;99.90;;;;;;5027080;28;20303;-24
2022/01/01 06:00:35;;;;;;;10.60;4.93;;;14.20;99.90;;;;;;5028288;28;20209;-23
2022/01/01 06:03:03;;;;;;;9.40;5.00;;;14.20;99.90;;;;;;5043269;28;20251;-23
2022/01/01 06:05:31;;;;;;;10.40;4.93;;;14.20;99.90;;;;;;5026877;28;20232;-23
2022/01/01 06:08:01;;;;;;;7.97;3.83;;;14.20;99.90;;;;;;5028260;28;20208;-23
2022/01/01 06:10:28;;;;;;;11.47;5.30;;;14.20;99.90;;;;;;5027877;28;20585;-23
2022/01/01 06:12:56;;;;;;;10.87;5.27;;;14.20;99.90;;;;;;5027202;28;20221;-23
2022/01/01 06:15:24;;;;;;;8.87;4.77;;;14.20;99.90;;;;;;5025257;28;20197;-24
2022/01/01 06:17:51;;;;;;;7.90;4.40;;;14.20;99.90;;;;;;5012553;28;20604;-23
2022/01/01 06:20:18;;;;;;;9.23;4.80;;;14.20;99.90;;;;;;5008391;28;20552;-23
2022/01/01 06:23:06;;;;;;;11.30;5.83;;;14.20;99.90;;;;;;5008304;28;20205;-23
2022/01/01 06:25:36;;;;;;;9.40;5.47;;;14.20;99.90;;;;;;5027406;28;20228;-23
2022/01/01 06:28:04;;;;;;;10.80;5.43;;;14.20;99.90;;;;;;5027346;28;20570;-23
2022/01/01 06:30:35;;;;;;;9.17;5.50;;;14.20;99.90;;;;;;5059615;28;20208;-24
2022/01/01 06:33:15;;;;;;;8.73;5.00;;;14.20;99.90;;;;;;5028181;28;20676;-24
2022/01/01 06:35:43;;;;;;;9.53;4.90;;;14.30;99.90;;;;;;5007749;28;20209;-24
2022/01/01 06:38:11;;;;;;;8.73;4.90;;;14.30;99.90;;;;;;5042325;28;20212;-26
2022/01/01 06:40:40;;;;;;;8.70;4.93;;;14.20;99.90;;;;;;5025946;28;20209;-23
2022/01/01 06:43:09;;;;;;;11.97;4.93;;;14.30;99.90;;;;;;5023759;28;20212;-23
2022/01/01 06:45:39;;;;;;;6.53;4.57;;;14.30;99.90;;;;;;5037570;28;20312;-23
2022/01/01 06:48:06;;;;;;;10.20;5.53;;;14.30;99.90;;;;;;5027330;28;20227;-24
2022/01/01 06:50:36;;;;;;;8.73;5.10;;;14.30;99.90;;;;;;5021906;28;20272;-23
2022/01/01 06:53:09;;;;;;;9.63;4.50;;;14.30;99.90;;;;;;5022427;28;20236;-24
2022/01/01 06:55:37;;;;;;;8.80;4.60;;;14.30;99.90;;;;;;5020922;28;20201;-24
2022/01/01 06:58:04;;;;;;;10.27;4.90;;;14.30;99.90;;;;;;5021481;28;20660;-23
2022/01/01 07:00:31;;;;;;;7.37;4.50;;;14.30;99.90;;;;;;5023913;28;20738;-23
2022/01/01 07:02:59;;;;;;;9.47;4.87;;;14.30;99.90;;;;;;5022121;28;20576;-24
2022/01/01 07:05:28;;;;;;;12.10;5.87;;;14.30;99.90;;;;;;5024361;28;20207;-23
2022/01/01 07:07:55;;;;;;;9.07;4.67;;;14.30;99.90;;;;;;5026635;28;20205;-23
2022/01/01 07:10:28;;;;;;;9.33;5.30;;;14.30;99.90;;;;;;5026796;28;20228;-24
2022/01/01 07:12:55;;;;;;;8.10;4.60;;;14.30;99.90;;;;;;5024314;28;20236;-23
2022/01/01 07:15:22;;;;;;;9.50;4.60;;;14.30;99.90;;;;;;5020946;28;20609;-23
2022/01/01 07:17:52;;;;;;;11.77;5.17;;;14.30;99.90;;;;;;5051420;28;20539;-24
2022/01/01 07:20:19;;;;;;;8.87;4.77;;;14.20;99.90;;;;;;5024145;28;20219;-23
2022/01/01 07:22:47;;;;;;;8.70;5.07;;;14.20;99.90;;;;;;5018298;28;20197;-23
2022/01/01 07:25:15;;;;;;;11.80;5.50;;;14.20;99.90;;;;;;5019967;28;20211;-24
2022/01/01 07:27:44;;;;;;;11.03;5.00;;;14.20;99.90;;;;;;5018235;28;20229;-24
2022/01/01 07:30:15;;;;;;;9.47;4.93;;;14.20;99.90;;;;;;5020114;28;20216;-23
2022/01/01 07:32:48;;;;;;;9.40;4.83;;;14.10;99.90;;;;;;5025270;28;20647;-23
2022/01/01 07:35:18;;;;;;;10.77;5.63;;;14.10;99.90;;;;;;5019958;28;20256;-23
2022/01/01 07:37:48;;;;;;;11.93;5.33;;;14.10;99.90;;;;;;5028115;28;20212;-23
2022/01/01 07:40:18;;;;;;;8.77;5.00;;;14.00;99.90;;;;;;5030013;28;20205;-23
2022/01/01 07:42:46;;;;;;;9.13;4.93;;;14.00;99.90;;;;;;5029805;28;20201;-23
2022/01/01 07:45:15;;;;;;;9.57;4.33;;;14.00;99.90;;;;;;5028271;28;20221;-24
2022/01/01 07:47:42;;;;;;;11.47;4.97;;;14.00;99.90;;;;;;5028546;28;20208;-23
2022/01/01 07:50:10;;;;;;;9.30;5.53;;;13.90;99.90;;;;;;5028612;28;20298;-23
2022/01/01 07:52:38;;;;;;;9.63;5.47;;;13.90;99.90;;;;;;5028230;28;20201;-23
2022/01/01 07:55:06;;;;;;;9.03;4.67;;;13.90;99.90;;;;;;5011674;28;20719;-23
2022/01/01 07:57:35;;;;;;;10.10;4.93;;;13.90;99.90;;;;;;5028945;28;20202;-23
2022/01/01 08:00:06;;;;;;;8.47;4.97;;;13.80;99.90;;;;;;5027134;28;20193;-23
2022/01/01 08:02:41;;;;;;;11.63;4.77;;;13.80;99.90;;;;;;5030300;28;20231;-23
2022/01/01 08:05:10;;;;;;;9.40;4.50;;;13.80;99.90;;;;;;5027417;28;20216;-24
2022/01/01 08:07:37;;;;;;;10.43;4.83;;;13.80;99.90;;;;;;5027853;28;20212;-24
2022/01/01 08:10:25;;;;;;;7.20;4.27;;;13.80;99.90;;;;;;5026489;28;20702;-23
2022/01/01 08:12:52;;;;;;;9.47;4.03;;;13.80;99.90;;;;;;5029344;28;20581;-23
2022/01/01 08:15:19;;;;;;;8.10;4.50;;;13.70;99.90;;;;;;5027300;28;20227;-23
2022/01/01 08:17:46;;;;;;;9.27;4.70;;;13.70;99.90;;;;;;5029539;28;20232;-23
2022/01/01 08:20:13;;;;;;;9.20;4.73;;;13.70;99.90;;;;;;5029982;28;20300;-24
2022/01/01 08:22:41;;;;;;;8.90;4.40;;;13.70;99.90;;;;;;5029909;28;20201;-24
2022/01/01 08:25:08;;;;;;;8.07;4.40;;;13.70;99.90;;;;;;5026306;28;20295;-23
2022/01/01 08:27:35;;;;;;;8.23;4.57;;;13.70;99.90;;;;;;5028648;28;20621;-23
2022/01/01 08:30:03;;;;;;;8.77;3.90;;;13.70;99.90;;;;;;5027788;28;20311;-24
2022/01/01 08:32:33;;;;;;;6.13;3.67;;;13.70;99.90;;;;;;5055736;28;20204;-23
2022/01/01 08:35:00;;;;;;;8.37;3.53;;;13.70;99.90;;;;;;5026219;28;20291;-24
2022/01/01 08:37:27;;;;;;;6.97;3.90;;;13.80;99.90;;;;;;5026313;28;20494;-23
2022/01/01 08:39:57;;;;;;;6.77;4.10;;;13.80;99.90;;;;;;5029134;28;20220;-24
2022/01/01 08:42:26;;;;;;;6.47;3.87;;;13.80;99.90;;;;;;5027399;28;20197;-24
2022/01/01 08:44:53;;;;;;;6.93;3.70;;;13.80;99.90;;;;;;5021344;28;20771;-23
2022/01/01 08:47:24;;;;;;;10.03;4.37;;;13.80;99.90;;;;;;5026313;28;20217;-23
2022/01/01 08:49:56;;;;;;;7.17;3.83;;;13.80;99.90;;;;;;5025837;28;20247;-24
2022/01/01 08:52:23;;;;;;;7.87;4.10;;;13.80;99.90;;;;;;5027298;28;20212;-24
2022/01/01 08:54:59;;;;;;;6.03;3.83;;;13.80;99.90;;;;;;5027910;28;20225;-24
2022/01/01 08:57:27;;;;;;;8.00;4.10;;;13.80;99.90;;;;;;5026955;28;20193;-23
2022/01/01 08:59:56;;;;;;;9.83;3.80;;;13.80;99.90;;;;;;5027168;28;20201;-22
2022/01/01 09:02:24;;;;;;;6.07;4.03;;;13.90;99.90;;;;;;5028942;28;20236;-22
2022/01/01 09:04:52;;;;;;;6.00;3.80;;;13.90;99.90;;;;;;5027157;28;20247;-22
2022/01/01 09:07:19;;;;;;;8.83;4.00;;;13.90;99.90;;;;;;5027315;28;20197;-22
2022/01/01 09:09:47;;;;;;;6.73;3.57;;;13.90;99.90;;;;;;5026488;28;20201;-22
2022/01/01 09:12:14;;;;;;;7.00;3.73;;;13.90;99.90;;;;;;5028825;28;20228;-22
2022/01/01 09:14:42;;;;;;;7.47;3.87;;;13.90;99.90;;;;;;5027219;28;20703;-22
2022/01/01 09:17:12;;;;;;;7.27;4.00;;;14.00;99.90;;;;;;5026642;28;20674;-22
2022/01/01 09:19:39;;;;;;;5.83;3.37;;;14.00;99.90;;;;;;5027588;28;20221;-22
2022/01/01 09:22:06;;;;;;;8.43;5.00;;;14.00;99.90;;;;;;5027191;28;20719;-22
2022/01/01 09:24:34;;;;;;;8.40;4.13;;;14.00;99.90;;;;;;5028173;28;20197;-22
2022/01/01 09:27:01;;;;;;;6.97;3.63;;;14.00;99.90;;;;;;5025871;28;20316;-22
2022/01/01 09:29:29;;;;;;;9.53;3.80;;;14.10;99.90;;;;;;5026164;28;20717;-22
2022/01/01 09:31:56;;;;;;;6.13;3.97;;;14.10;99.90;;;;;;5041198;28;20207;-23
2022/01/01 09:34:24;;;;;;;6.50;3.70;;;14.10;99.90;;;;;;5026230;28;20217;-23
2022/01/01 09:36:54;;;;;;;6.57;3.97;;;14.10;99.90;;;;;;5027200;28;20231;-23
2022/01/01 09:39:25;;;;;;;5.77;3.80;;;14.10;99.90;;;;;;5027954;28;20351;-23
2022/01/01 09:41:52;;;;;;;7.43;3.80;;;14.10;99.90;;;;;;5026129;28;20197;-23
2022/01/01 09:44:20;;;;;;;9.00;3.83;;;14.20;99.90;;;;;;5023520;28;20216;-23
2022/01/01 09:46:50;;;;;;;5.67;3.50;;;14.20;99.90;;;;;;5020983;28;20245;-22
2022/01/01 09:49:19;;;;;;;5.50;3.30;;;14.20;99.90;;;;;;5027282;28;20232;-22
2022/01/01 09:51:47;;;;;;;5.53;3.70;;;14.20;99.90;;;;;;5027186;28;20580;-22
2022/01/01 09:54:14;;;;;;;4.97;3.33;;;14.30;99.90;;;;;;5024576;28;20220;-22
2022/01/01 09:56:41;;;;;;;5.17;3.37;;;14.30;99.90;;;;;;5024785;28;20205;-22
2022/01/01 09:59:11;;;;;;;5.43;3.50;;;14.30;99.90;;;;;;5025091;28;20200;-23
2022/01/01 10:01:45;;;;;;;5.87;3.40;;;14.30;99.90;;;;;;5012331;28;20606;-23
2022/01/01 10:04:14;;;;;;;6.10;3.43;;;14.40;99.90;;;;;;5026882;28;20240;-24
2022/01/01 10:06:43;;;;;;;4.77;3.30;;;14.40;99.90;;;;;;5027322;28;20291;-22
2022/01/01 10:09:16;;;;;;;6.13;3.40;;;14.40;99.90;;;;;;5007947;28;20212;-22
2022/01/01 10:11:43;;;;;;;4.90;3.20;;;14.40;99.90;;;;;;5008180;28;20224;-22
2022/01/01 10:14:16;;;;;;;6.77;3.37;;;14.40;99.90;;;;;;5015533;28;20315;-22
2022/01/01 10:16:45;;;;;;;5.53;3.33;;;14.40;99.90;;;;;;5027338;28;20829;-22
2022/01/01 10:19:12;;;;;;;5.33;2.60;;;14.50;99.90;;;;;;5026518;28;20213;-22
2022/01/01 10:21:41;;;;;;;3.80;2.70;;;14.50;99.90;;;;;;5027528;28;20203;-23
2022/01/01 10:24:14;;;;;;;7.23;2.73;;;14.50;99.90;;;;;;5026782;28;20671;-22
2022/01/01 10:29:32;;;;;;;4.23;2.83;;;14.60;99.90;;;;;;5026711;28;20215;-22
2022/01/01 10:32:03;;;;;;;3.43;2.60;;;14.60;99.90;;;;;;5027314;28;20216;-22
2022/01/01 10:34:42;;;;;;;4.73;2.60;;;14.70;99.90;;;;;;5019443;28;20224;-22
2022/01/01 10:37:30;;;;;;;3.83;2.50;;;14.70;99.90;;;;;;5025676;28;20212;-22
2022/01/01 10:39:58;;;;;;;3.90;2.67;;;14.80;99.90;;;;;;5034106;28;20197;-22
2022/01/01 10:42:27;;;;;;;5.67;2.80;;;14.80;99.90;;;;;;5025947;28;20201;-22
2022/01/01 10:44:54;;;;;;;6.13;2.70;;;14.80;99.90;;;;;;5025780;28;20318;-22
2022/01/01 10:47:31;;;;;;;5.33;2.63;;;14.90;99.90;;;;;;5028187;28;20270;-22
2022/01/01 10:52:45;;;;;;;2.83;2.13;;;14.90;99.90;;;;;;5040985;28;20586;-22
2022/01/01 10:55:15;;;;;;;4.47;2.27;;;14.90;99.90;;;;;;5028069;28;20225;-26
2022/01/01 10:57:58;;;;;;;3.77;2.20;;;14.90;99.90;;;;;;5039335;28;20200;-23
2022/01/01 11:00:28;;;;;;;4.43;2.47;;;15.00;99.90;;;;;;5030147;28;20200;-23
2022/01/01 11:02:59;;;;;;;5.13;2.73;;;15.00;99.90;;;;;;5025733;28;20284;-23
2022/01/01 11:05:34;;;;;;;3.67;2.00;;;15.00;99.90;;;;;;5027023;28;20216;-23
2022/01/01 11:08:06;;;;;;;3.30;1.77;;;15.10;99.90;;;;;;5033787;28;20210;-23
2022/01/01 11:10:35;;;;;;;3.30;1.87;;;15.10;99.90;;;;;;5032428;28;20211;-23
2022/01/01 11:13:06;;;;;;;2.47;1.70;;;15.10;99.90;;;;;;5029299;28;20220;-23
2022/01/01 11:15:34;;;;;;;3.13;1.67;;;15.20;99.90;;;;;;5028390;28;20669;-23
2022/01/01 11:18:05;;;;;;;4.93;1.90;;;15.20;99.90;;;;;;5030596;28;20629;-24
2022/01/01 11:20:34;;;;;;;2.13;1.40;;;15.20;99.90;;;;;;5031742;28;20278;-23
2022/01/01 11:23:09;;;;;;;4.30;1.70;;;15.20;99.90;;;;;;5028865;28;20204;-23
2022/01/01 11:25:39;;;;;;;2.17;1.80;;;15.30;99.90;;;;;;5031760;28;20216;-23
2022/01/01 11:28:14;;;;;;;3.20;1.70;;;15.30;99.90;;;;;;5028584;28;20197;-23
2022/01/01 11:30:49;;;;;;;3.80;1.63;;;15.30;99.90;;;;;;5031980;28;20209;-24
2022/01/01 11:33:24;;;;;;;1.63;1.53;;;15.30;99.90;;;;;;5028840;28;20296;-23
2022/01/01 11:35:58;;;;;;;3.23;1.60;;;15.40;99.90;;;;;;5029383;28;20303;-23
2022/01/01 11:38:27;;;;;;;2.40;1.57;;;15.40;99.90;;;;;;5029528;28;20743;-23
2022/01/01 11:40:58;;;;;;;1.80;1.20;;;15.40;99.90;;;;;;5029496;28;20201;-23
2022/01/01 11:43:36;;;;;;;2.67;1.70;;;15.50;99.90;;;;;;5028471;28;21734;-24
2022/01/01 11:46:05;;;;;;;2.83;1.77;;;15.50;99.90;;;;;;5016546;28;20212;-23
2022/01/01 11:48:46;;;;;;;2.10;1.77;;;15.50;99.90;;;;;;5028624;28;20242;-24
2022/01/01 11:51:33;;;;;;;4.60;1.60;;;15.50;99.90;;;;;;5030582;28;20203;-23
2022/01/01 11:54:19;;;;;;;2.87;1.70;;;15.50;99.90;;;;;;5029428;28;20205;-23
2022/01/01 11:56:48;;;;;;;3.20;1.63;;;15.60;99.90;;;;;;5025713;28;20271;-24
2022/01/01 11:59:33;;;;;;;2.20;1.57;;;15.60;99.90;;;;;;5029842;28;20208;-23
2022/01/01 12:02:06;;;;;;;2.23;1.40;;;15.60;99.90;;;;;;5027457;28;20197;-23
2022/01/01 12:04:35;;;;;;;1.60;1.30;;;15.60;99.90;;;;;;5018296;28;20759;-23
2022/01/01 12:07:18;;;;;;;2.10;1.43;;;15.70;99.90;;;;;;5037923;28;20243;-23
2022/01/01 12:10:04;;;;;;;2.73;1.40;;;15.70;99.90;;;;;;5029592;28;20291;-23
2022/01/01 12:12:54;;;;;;;3.20;1.70;;;15.70;99.90;;;;;;5043381;28;20580;-23
2022/01/01 12:15:24;;;;;;;3.27;1.50;;;15.80;99.90;;;;;;5044200;28;20310;-24
2022/01/01 12:17:59;;;;;;;2.60;1.50;;;15.80;99.90;;;;;;5028968;28;20263;-23
2022/01/01 12:20:28;;;;;;;2.30;1.40;;;15.80;99.90;;;;;;5028357;28;20683;-23
2022/01/01 12:22:56;;;;;;;2.43;1.60;;;15.80;99.90;;;;;;5030335;28;20200;-24
2022/01/01 12:25:27;;;;;;;3.87;1.90;;;15.80;99.90;;;;;;5028785;28;20299;-24
2022/01/01 12:28:01;;;;;;;2.33;1.47;;;15.90;99.90;;;;;;5022419;28;20197;-24
2022/01/01 12:30:33;;;;;;;2.27;1.40;;;15.90;99.90;;;;;;5028892;28;20208;-23
2022/01/01 12:33:00;;;;;;;2.73;1.57;;;15.90;99.90;;;;;;5028911;28;20209;-23
2022/01/01 12:35:40;;;;;;;2.27;1.50;;;15.90;99.90;;;;;;5029275;28;20216;-26
2022/01/01 12:38:19;;;;;;;2.13;1.47;;;16.00;99.90;;;;;;5029882;28;20595;-26
2022/01/01 12:41:03;;;;;;;2.70;1.60;;;16.00;99.90;;;;;;5028626;28;20193;-26
2022/01/01 12:43:41;;;;;;;2.33;1.50;;;16.00;99.90;;;;;;5024984;28;20213;-26
2022/01/01 12:46:10;;;;;;;2.53;1.60;;;16.00;99.90;;;;;;5028240;28;20320;-23
2022/01/01 12:48:38;;;;;;;3.20;1.40;;;16.10;99.90;;;;;;5029002;28;20205;-24
2022/01/01 12:51:15;;;;;;;1.70;1.30;;;16.10;99.90;;;;;;5044063;28;20200;-26
2022/01/01 12:53:44;;;;;;;2.37;1.40;;;16.10;99.90;;;;;;5028732;28;20189;-23
2022/01/01 12:56:14;;;;;;;3.50;1.57;;;16.20;99.90;;;;;;5017831;28;20229;-23
2022/01/01 12:58:45;;;;;;;2.50;1.30;;;16.20;99.90;;;;;;5009781;28;20676;-24
2022/01/01 13:01:17;;;;;;;2.67;1.47;;;16.20;99.90;;;;;;5026588;28;20224;-23
2022/01/01 13:04:02;;;;;;;2.70;1.60;;;16.20;99.90;;;;;;5027519;28;20200;-22
2022/01/01 13:06:37;;;;;;;2.30;1.40;;;16.30;99.90;;;;;;5029404;28;20201;-23
2022/01/01 13:09:13;;;;;;;1.50;1.17;;;16.30;99.90;;;;;;5027743;28;20217;-22
2022/01/01 13:11:49;;;;;;;8.90;2.53;;;16.30;99.90;;;;;;5028608;28;20207;-22